createdAt,value
2022-10-11T00:00:36.987Z,87918.75
2022-10-11T00:03:04.683Z,87921.31
2022-10-11T00:05:33.472Z,87918.34
2022-10-11T00:08:00.878Z,87918.00
2022-10-11T00:10:28.325Z,87917.59
2022-10-11T00:12:55.538Z,87915.31
2022-10-11T00:15:23.121Z,87918.34
2022-10-11T00:17:50.753Z,87911.22
2022-10-11T00:20:18.552Z,87916.13
2022-10-11T00:22:45.773Z,87911.56
2022-10-11T00:25:13.802Z,87908.16
2022-10-11T00:27:41.209Z,87908.53
2022-10-11T00:30:10.550Z,87902.84
2022-10-11T00:32:39.586Z,87900.91
2022-10-11T00:35:07.916Z,87902.72
2022-10-11T00:37:38.503Z,87904.19
2022-10-11T00:40:13.073Z,87916.16
2022-10-11T00:42:40.303Z,87911.22
2022-10-11T00:45:47.240Z,87908.59
2022-10-11T00:48:29.720Z,87911.91
2022-10-11T00:51:01.396Z,87901.31
2022-10-11T00:53:32.596Z,87908.06
2022-10-11T00:56:17.297Z,87914.41
2022-10-11T00:58:44.902Z,87915.16
2022-10-11T01:01:12.461Z,87914.81
2022-10-11T01:03:41.037Z,87909.97
2022-10-11T01:06:09.043Z,87911.81
2022-10-11T01:08:36.967Z,87910.78
2022-10-11T01:11:04.601Z,87908.16
2022-10-11T01:14:00.055Z,87903.72
2022-10-11T01:16:37.730Z,87908.22
2022-10-11T01:19:55.155Z,87899.97
2022-10-11T01:23:09.727Z,87901.16
2022-10-11T01:26:19.385Z,87900.47
2022-10-11T01:29:07.243Z,87899.41
2022-10-11T01:32:02.151Z,87891.97
2022-10-11T01:35:18.515Z,87895.09
2022-10-11T01:38:02.886Z,87899.66
2022-10-11T01:40:40.810Z,87903.09
2022-10-11T01:43:10.171Z,87893.34
2022-10-11T01:45:38.259Z,87902.44
2022-10-11T01:48:11.160Z,87896.41
2022-10-11T01:50:49.630Z,87896.81
2022-10-11T01:53:52.981Z,87896.06
2022-10-11T01:56:58.237Z,87895.66
2022-10-11T02:00:03.479Z,87885.47
2022-10-11T02:02:35.738Z,87888.53
2022-10-11T02:05:35.488Z,87888.53
2022-10-11T02:08:36.694Z,87895.34
2022-10-11T02:11:22.487Z,87889.34
2022-10-11T02:14:19.968Z,87899.41
2022-10-11T02:17:04.546Z,87892.16
2022-10-11T02:19:39.493Z,87895.59
2022-10-11T02:22:15.868Z,87899.00
2022-10-11T02:24:50.435Z,87883.22
2022-10-11T02:27:24.014Z,87895.59
2022-10-11T02:29:54.649Z,87894.84
2022-10-11T02:32:25.599Z,87891.03
2022-10-11T02:35:00.393Z,87891.75
2022-10-11T02:37:52.215Z,87890.59
2022-10-11T02:40:37.316Z,87896.53
2022-10-11T02:43:25.363Z,87892.69
2022-10-11T02:46:01.363Z,87894.47
2022-10-11T02:48:31.725Z,87894.84
2022-10-11T02:50:59.512Z,87897.84
2022-10-11T02:53:27.156Z,87894.38
2022-10-11T02:55:55.921Z,87901.84
2022-10-11T02:58:24.569Z,87890.19
2022-10-11T03:00:52.064Z,87892.03
2022-10-11T03:03:19.590Z,87890.50
2022-10-11T03:05:47.036Z,87896.94
2022-10-11T03:08:16.726Z,87893.41
2022-10-11T03:10:44.234Z,87904.69
2022-10-11T03:13:16.011Z,87903.94
2022-10-11T03:16:01.942Z,87905.84
2022-10-11T03:18:30.922Z,87910.31
2022-10-11T03:20:58.286Z,87900.16
2022-10-11T03:23:29.371Z,87897.81
2022-10-11T03:25:56.700Z,87906.78
2022-10-11T03:28:30.360Z,87906.38
2022-10-11T03:30:58.202Z,87903.34
2022-10-11T03:33:25.659Z,87914.97
2022-10-11T03:35:52.775Z,87908.19
2022-10-11T03:38:22.959Z,87908.88
2022-10-11T03:40:50.573Z,87912.19
2022-10-11T03:43:18.147Z,87908.69
2022-10-11T03:45:45.491Z,87916.59
2022-10-11T03:48:13.075Z,87913.13
2022-10-11T03:50:40.392Z,87912.28
2022-10-11T03:53:08.234Z,87923.50
2022-10-11T03:55:35.423Z,87918.53
2022-10-11T03:58:02.662Z,87915.13
2022-10-11T04:00:29.826Z,87928.63
2022-10-11T04:02:57.107Z,87921.06
2022-10-11T04:05:24.306Z,87921.41
2022-10-11T04:07:52.207Z,87922.09
2022-10-11T04:10:19.427Z,87926.63
2022-10-11T04:12:46.704Z,87931.03
2022-10-11T04:15:14.026Z,87924.94
2022-10-11T04:17:41.555Z,87925.97
2022-10-11T04:20:10.221Z,87924.88
2022-10-11T04:22:37.561Z,87921.13
2022-10-11T04:25:07.066Z,87921.13
2022-10-11T04:27:35.084Z,87925.66
2022-10-11T04:30:03.370Z,87919.22
2022-10-11T04:32:30.486Z,87923.28
2022-10-11T04:34:57.818Z,87927.44
2022-10-11T04:37:25.037Z,87922.88
2022-10-11T04:39:52.230Z,87923.56
2022-10-11T04:42:19.333Z,87924.66
2022-10-11T04:44:46.563Z,87927.97
2022-10-11T04:47:14.100Z,87916.66
2022-10-11T04:49:41.220Z,87924.84
2022-10-11T04:52:08.549Z,87927.47
2022-10-11T04:54:35.825Z,87927.06
2022-10-11T04:57:03.284Z,87928.88
2022-10-11T04:59:30.494Z,87932.94
2022-10-11T05:01:57.774Z,87939.28
2022-10-11T05:04:25.049Z,87935.81
2022-10-11T05:06:52.291Z,87940.66
2022-10-11T05:09:19.497Z,87931.53
2022-10-11T05:11:46.643Z,87936.25
2022-10-11T05:14:14.009Z,87936.59
2022-10-11T05:16:41.184Z,87936.50
2022-10-11T05:19:08.406Z,87935.41
2022-10-11T05:21:35.542Z,87939.06
2022-10-11T05:24:02.837Z,87942.78
2022-10-11T05:26:30.012Z,87940.84
2022-10-11T05:28:58.023Z,87943.47
2022-10-11T05:31:25.265Z,87942.03
2022-10-11T05:33:52.541Z,87936.03
2022-10-11T05:36:19.930Z,87941.28
2022-10-11T05:38:47.699Z,87943.47
2022-10-11T05:41:16.403Z,87947.13
2022-10-11T05:43:43.839Z,87952.69
2022-10-11T05:46:12.327Z,87948.56
2022-10-11T05:48:39.989Z,87953.81
2022-10-11T05:51:09.384Z,87960.56
2022-10-11T05:53:38.486Z,87961.69
2022-10-11T05:56:16.987Z,87959.06
2022-10-11T05:58:44.173Z,87968.72
2022-10-11T06:01:19.131Z,87970.56
2022-10-11T06:03:46.380Z,87967.25
2022-10-11T06:06:13.665Z,87975.47
2022-10-11T06:08:41.154Z,87968.72
2022-10-11T06:11:21.645Z,87981.16
2022-10-11T06:13:48.869Z,87975.47
2022-10-11T06:16:16.391Z,87978.78
2022-10-11T06:18:43.683Z,87980.72
2022-10-11T06:21:11.193Z,87981.84
2022-10-11T06:23:38.481Z,87986.41
2022-10-11T06:26:09.786Z,87986.91
2022-10-11T06:28:38.861Z,87988.94
2022-10-11T06:31:07.052Z,87991.72
2022-10-11T06:33:35.868Z,87996.06
2022-10-11T06:36:12.658Z,87994.44
2022-10-11T06:38:44.703Z,87993.06
2022-10-11T06:41:25.451Z,88001.13
2022-10-11T06:43:52.984Z,87997.09
2022-10-11T06:46:23.588Z,88003.53
2022-10-11T06:48:51.921Z,87998.03
2022-10-11T06:51:21.993Z,88005.72
2022-10-11T06:54:00.655Z,88016.38
2022-10-11T06:56:30.519Z,88007.13
2022-10-11T06:58:59.362Z,88003.88
2022-10-11T07:01:27.676Z,88005.88
2022-10-11T07:03:57.964Z,88009.41
2022-10-11T07:06:28.589Z,88007.41
2022-10-11T07:08:56.160Z,88005.06
2022-10-11T07:11:27.169Z,88012.44
2022-10-11T07:14:01.477Z,88019.13
2022-10-11T07:16:29.602Z,88012.91
2022-10-11T07:19:01.091Z,88013.13
2022-10-11T07:21:30.993Z,88011.78
2022-10-11T07:23:58.869Z,88006.63
2022-10-11T07:26:26.654Z,88000.38
2022-10-11T07:28:54.070Z,87998.28
2022-10-11T07:31:25.078Z,88001.84
2022-10-11T07:33:53.082Z,87999.75
2022-10-11T07:36:20.571Z,87994.59
2022-10-11T07:38:48.370Z,87996.97
2022-10-11T07:41:16.049Z,87994.44
2022-10-11T07:43:43.701Z,87992.72
2022-10-11T07:46:11.487Z,87990.53
2022-10-11T07:48:39.043Z,87987.28
2022-10-11T07:51:10.704Z,87988.53
2022-10-11T07:53:48.085Z,87986.00
2022-10-11T07:56:19.774Z,87985.72
2022-10-11T07:58:52.991Z,87976.81
2022-10-11T08:01:21.261Z,87982.16
2022-10-11T08:03:49.875Z,87977.38
2022-10-11T08:06:21.142Z,87974.44
2022-10-11T08:08:49.575Z,87978.28
2022-10-11T08:11:27.585Z,87972.69
2022-10-11T08:13:55.405Z,87974.28
2022-10-11T08:16:22.901Z,87973.28
2022-10-11T08:18:50.400Z,87979.41
2022-10-11T08:21:19.114Z,87972.69
2022-10-11T08:23:46.673Z,87974.63
2022-10-11T08:26:29.173Z,87977.34
2022-10-11T08:28:58.333Z,87974.03
2022-10-11T08:31:25.574Z,87968.06
2022-10-11T08:33:53.660Z,87970.78
2022-10-11T08:36:21.210Z,87976.91
2022-10-11T08:38:48.395Z,87974.69
2022-10-11T08:41:30.307Z,87975.53
2022-10-11T08:44:20.949Z,87976.69
2022-10-11T08:47:00.682Z,87974.09
2022-10-11T08:49:33.823Z,87977.91
2022-10-11T08:52:11.783Z,87975.31
2022-10-11T08:54:59.617Z,87974.66
2022-10-11T08:57:32.026Z,87975.84
2022-10-11T09:00:08.730Z,87976.31
2022-10-11T09:03:08.476Z,87968.78
2022-10-11T09:06:04.328Z,87975.66
2022-10-11T09:09:03.132Z,87970.78
2022-10-11T09:11:41.917Z,87976.13
2022-10-11T09:15:12.062Z,87964.41
2022-10-11T09:18:24.708Z,87978.44
2022-10-11T09:21:15.515Z,87970.50
2022-10-11T09:24:09.562Z,87968.97
2022-10-11T09:27:00.226Z,87967.47
2022-10-11T09:30:01.730Z,87968.63
2022-10-11T09:32:44.676Z,87958.44
2022-10-11T09:35:21.269Z,87963.72
2022-10-11T09:38:27.963Z,87963.00
2022-10-11T09:41:05.023Z,87962.25
2022-10-11T09:43:32.907Z,87958.50
2022-10-11T09:46:00.170Z,87958.88
2022-10-11T09:48:41.460Z,87947.16
2022-10-11T09:51:21.919Z,87945.66
2022-10-11T09:53:52.647Z,87942.25
2022-10-11T09:56:21.153Z,87945.28
2022-10-11T09:58:48.523Z,87946.84
2022-10-11T10:01:26.023Z,87942.31
2022-10-11T10:04:08.429Z,87943.06
2022-10-11T10:06:36.528Z,87943.06
2022-10-11T10:09:30.596Z,87946.47
2022-10-11T10:11:58.468Z,87940.78
2022-10-11T10:14:30.398Z,87940.75
2022-10-11T10:17:17.705Z,87936.19
2022-10-11T10:19:55.299Z,87932.78
2022-10-11T10:22:32.311Z,87932.75
2022-10-11T10:25:03.482Z,87933.47
2022-10-11T10:27:31.900Z,87930.81
2022-10-11T10:30:08.366Z,87928.91
2022-10-11T10:33:04.735Z,87921.69
2022-10-11T10:35:58.304Z,87923.94
2022-10-11T10:38:36.251Z,87920.09
2022-10-11T10:41:16.624Z,87912.84
2022-10-11T10:43:52.301Z,87912.06
2022-10-11T10:46:49.374Z,87915.41
2022-10-11T10:49:53.294Z,87914.56
2022-10-11T10:52:27.381Z,87901.16
2022-10-11T10:55:12.453Z,87906.00
2022-10-11T10:57:48.373Z,87896.91
2022-10-11T11:00:22.277Z,87889.09
2022-10-11T11:03:02.374Z,87887.94
2022-10-11T11:05:54.090Z,87888.72
2022-10-11T11:08:36.783Z,87888.16
2022-10-11T11:11:34.865Z,87875.31
2022-10-11T11:14:19.044Z,87877.59
2022-10-11T11:17:15.917Z,87875.22
2022-10-11T11:20:02.218Z,87873.34
2022-10-11T11:23:00.486Z,87876.78
2022-10-11T11:26:01.146Z,87877.00
2022-10-11T11:28:45.950Z,87868.19
2022-10-11T11:31:24.500Z,87871.81
2022-10-11T11:34:09.306Z,87874.81
2022-10-11T11:37:06.618Z,87864.22
2022-10-11T11:39:48.699Z,87869.56
2022-10-11T11:42:23.905Z,87868.22
2022-10-11T11:44:52.769Z,87866.84
2022-10-11T11:47:40.105Z,87860.38
2022-10-11T11:50:13.359Z,87852.84
2022-10-11T11:52:47.067Z,87866.66
2022-10-11T11:55:28.736Z,87863.94
2022-10-11T11:58:06.954Z,87860.94
2022-10-11T12:00:57.286Z,87863.84
2022-10-11T12:03:51.504Z,87857.69
2022-10-11T12:06:26.209Z,87856.94
2022-10-11T12:09:17.066Z,87849.72
2022-10-11T12:11:56.552Z,87853.94
2022-10-11T12:14:35.541Z,87854.72
2022-10-11T12:17:24.108Z,87851.56
2022-10-11T12:20:24.530Z,87849.19
2022-10-11T12:22:58.635Z,87845.16
2022-10-11T12:25:28.696Z,87840.41
2022-10-11T12:27:59.125Z,87846.66
2022-10-11T12:30:44.583Z,87835.91
2022-10-11T12:33:45.119Z,87837.63
2022-10-11T12:36:34.066Z,87838.16
2022-10-11T12:39:19.610Z,87825.59
2022-10-11T12:41:50.499Z,87827.34
2022-10-11T12:44:27.851Z,87828.50
2022-10-11T12:46:55.427Z,87823.34
2022-10-11T12:49:31.648Z,87820.53
2022-10-11T12:52:15.432Z,87820.53
2022-10-11T12:55:25.557Z,87810.22
2022-10-11T12:58:19.814Z,87810.13
2022-10-11T13:00:52.890Z,87812.38
2022-10-11T13:03:39.168Z,87817.22
2022-10-11T13:06:36.136Z,87815.28
2022-10-11T13:09:27.494Z,87812.59
2022-10-11T13:12:19.326Z,87807.56
2022-10-11T13:15:00.939Z,87810.09
2022-10-11T13:17:38.689Z,87821.41
2022-10-11T13:20:26.343Z,87823.41
2022-10-11T13:22:56.771Z,87818.91
2022-10-11T13:25:37.658Z,87817.66
2022-10-11T13:28:09.938Z,87821.88
2022-10-11T13:30:44.026Z,87823.59
2022-10-11T13:33:26.486Z,87818.91
2022-10-11T13:35:54.257Z,87826.63
2022-10-11T13:38:30.979Z,87814.06
2022-10-11T13:41:03.237Z,87818.78
2022-10-11T13:43:32.051Z,87818.03
2022-10-11T13:46:02.145Z,87814.63
2022-10-11T13:48:32.151Z,87814.09
2022-10-11T13:51:37.520Z,87818.34
2022-10-11T13:54:13.420Z,87827.00
2022-10-11T13:56:52.258Z,87825.09
2022-10-11T13:59:24.161Z,87823.50
2022-10-11T14:02:00.171Z,87814.56
2022-10-11T14:04:30.055Z,87812.09
2022-10-11T14:07:03.350Z,87816.91
2022-10-11T14:09:35.621Z,87821.34
2022-10-11T14:12:32.010Z,87818.06
2022-10-11T14:15:01.111Z,87817.47
2022-10-11T14:17:45.191Z,87812.34
2022-10-11T14:20:17.481Z,87810.97
2022-10-11T14:22:44.889Z,87812.00
2022-10-11T14:25:13.350Z,87812.88
2022-10-11T14:27:40.601Z,87811.56
2022-10-11T14:30:26.694Z,87813.63
2022-10-11T14:32:57.746Z,87819.09
2022-10-11T14:35:30.188Z,87815.31
2022-10-11T14:37:58.098Z,87829.84
2022-10-11T14:40:30.707Z,87820.78
2022-10-11T14:42:57.972Z,87818.53
2022-10-11T14:45:25.413Z,87822.03
2022-10-11T14:47:52.702Z,87822.22
2022-10-11T14:50:44.871Z,87821.13
2022-10-11T14:53:13.668Z,87822.81
2022-10-11T14:55:42.851Z,87817.91
2022-10-11T14:58:18.754Z,87831.34
2022-10-11T15:00:46.321Z,87828.44
2022-10-11T15:03:13.484Z,87830.06
2022-10-11T15:05:40.715Z,87821.47
2022-10-11T15:08:07.902Z,87829.53
2022-10-11T15:10:41.640Z,87829.72
2022-10-11T15:13:09.425Z,87826.03
2022-10-11T15:15:39.243Z,87834.53
2022-10-11T15:18:15.713Z,87840.31
2022-10-11T15:20:46.206Z,87821.75
2022-10-11T15:23:13.879Z,87832.19
2022-10-11T15:25:42.097Z,87837.25
2022-10-11T15:28:23.526Z,87838.94
2022-10-11T15:30:50.732Z,87842.44
2022-10-11T15:33:17.926Z,87839.53
2022-10-11T15:35:45.321Z,87841.84
2022-10-11T15:38:22.511Z,87833.91
2022-10-11T15:40:52.299Z,87848.44
2022-10-11T15:43:24.443Z,87847.75
2022-10-11T15:45:52.659Z,87849.34
2022-10-11T15:48:23.280Z,87846.81
2022-10-11T15:50:51.344Z,87854.06
2022-10-11T15:53:29.199Z,87854.88
2022-10-11T15:56:00.854Z,87857.25
2022-10-11T15:58:36.873Z,87856.91
2022-10-11T16:01:09.528Z,87857.31
2022-10-11T16:03:37.021Z,87857.78
2022-10-11T16:06:05.812Z,87858.59
2022-10-11T16:08:35.478Z,87861.28
2022-10-11T16:11:04.892Z,87863.63
2022-10-11T16:13:32.198Z,87864.06
2022-10-11T16:16:07.301Z,87864.88
2022-10-11T16:18:35.908Z,87861.13
2022-10-11T16:21:09.818Z,87859.28
2022-10-11T16:23:38.178Z,87865.81
2022-10-11T16:26:11.465Z,87870.00
2022-10-11T16:28:39.235Z,87866.25
2022-10-11T16:31:17.672Z,87876.56
2022-10-11T16:33:45.219Z,87872.03
2022-10-11T16:36:20.069Z,87872.84
2022-10-11T16:38:47.797Z,87877.47
2022-10-11T16:41:15.317Z,87881.28
2022-10-11T16:43:42.697Z,87879.81
2022-10-11T16:46:10.404Z,87890.44
2022-10-11T16:48:37.677Z,87887.09
2022-10-11T16:51:08.024Z,87892.44
2022-10-11T16:53:36.519Z,87904.97
2022-10-11T16:56:13.622Z,87907.66
2022-10-11T16:58:44.264Z,87912.22
2022-10-11T17:01:11.659Z,87910.31
2022-10-11T17:03:39.447Z,87917.94
2022-10-11T17:06:07.795Z,87916.81
2022-10-11T17:08:35.621Z,87919.88
2022-10-11T17:11:03.743Z,87914.94
2022-10-11T17:13:30.980Z,87924.03
2022-10-11T17:15:58.712Z,87921.41
2022-10-11T17:18:26.644Z,87925.97
2022-10-11T17:21:07.385Z,87927.50
2022-10-11T17:23:36.004Z,87929.41
2022-10-11T17:26:11.259Z,87929.78
2022-10-11T17:28:39.272Z,87926.75
2022-10-11T17:31:07.622Z,87926.38
2022-10-11T17:33:35.671Z,87924.50
2022-10-11T17:36:13.945Z,87918.44
2022-10-11T17:38:41.412Z,87926.38
2022-10-11T17:41:09.444Z,87929.03
2022-10-11T17:43:37.758Z,87931.69
2022-10-11T17:46:07.115Z,87936.59
2022-10-11T17:48:37.465Z,87935.06
2022-10-11T17:51:11.007Z,87936.56
2022-10-11T17:53:38.907Z,87946.00
2022-10-11T17:56:14.614Z,87949.41
2022-10-11T17:58:43.042Z,87947.13
2022-10-11T18:01:16.269Z,87944.84
2022-10-11T18:03:44.873Z,87946.34
2022-10-11T18:06:13.738Z,87939.16
2022-10-11T18:08:41.526Z,87936.47
2022-10-11T18:11:16.598Z,87938.75
2022-10-11T18:13:47.057Z,87953.09
2022-10-11T18:16:17.113Z,87945.50
2022-10-11T18:18:45.446Z,87944.75
2022-10-11T18:21:13.641Z,87947.38
2022-10-11T18:23:41.192Z,87944.31
2022-10-11T18:26:13.992Z,87938.59
2022-10-11T18:28:42.966Z,87946.94
2022-10-11T18:31:15.727Z,87945.00
2022-10-11T18:33:45.110Z,87952.91
2022-10-11T18:36:18.909Z,87955.19
2022-10-11T18:38:47.964Z,87949.84
2022-10-11T18:41:19.889Z,87952.88
2022-10-11T18:43:55.819Z,87952.06
2022-10-11T18:46:25.711Z,87958.06
2022-10-11T18:48:55.794Z,87954.25
2022-10-11T18:51:27.537Z,87964.06
2022-10-11T18:53:55.556Z,87959.50
2022-10-11T18:56:23.774Z,87962.13
2022-10-11T18:58:53.620Z,87963.97
2022-10-11T19:01:31.674Z,87966.22
2022-10-11T19:04:01.761Z,87961.31
2022-10-11T19:06:36.967Z,87967.69
2022-10-11T19:09:24.386Z,87963.50
2022-10-11T19:11:54.381Z,87968.00
2022-10-11T19:14:26.409Z,87973.66
2022-10-11T19:16:55.322Z,87971.41
2022-10-11T19:19:26.957Z,87970.59
2022-10-11T19:21:54.598Z,87967.94
2022-10-11T19:24:25.106Z,87977.34
2022-10-11T19:26:53.069Z,87971.66
2022-10-11T19:29:24.310Z,87979.16
2022-10-11T19:31:55.586Z,87973.88
2022-10-11T19:34:24.257Z,87981.03
2022-10-11T19:36:51.388Z,87980.25
2022-10-11T19:39:20.326Z,87980.25
2022-10-11T19:41:47.856Z,87985.19
2022-10-11T19:44:16.236Z,87988.56
2022-10-11T19:46:51.563Z,87989.31
2022-10-11T19:49:21.736Z,87988.16
2022-10-11T19:51:49.010Z,87994.22
2022-10-11T19:54:17.195Z,87993.44
2022-10-11T19:56:44.708Z,87994.53
2022-10-11T19:59:13.583Z,87994.53
2022-10-11T20:01:42.573Z,87996.03
2022-10-11T20:04:27.417Z,88000.22
2022-10-11T20:06:59.672Z,87994.50
2022-10-11T20:09:30.955Z,87997.13
2022-10-11T20:11:59.065Z,87999.78
2022-10-11T20:14:26.540Z,87997.50
2022-10-11T20:16:53.706Z,87999.38
2022-10-11T20:19:23.676Z,87997.50
2022-10-11T20:21:53.715Z,88011.88
2022-10-11T20:24:21.067Z,88005.41
2022-10-11T20:26:48.321Z,88012.59
2022-10-11T20:29:15.492Z,88015.22
2022-10-11T20:31:42.686Z,88008.41
2022-10-11T20:34:12.304Z,88011.44
2022-10-11T20:36:39.410Z,88016.38
2022-10-11T20:39:06.806Z,88016.00
2022-10-11T20:41:38.640Z,88020.13
2022-10-11T20:44:07.702Z,88026.16
2022-10-11T20:46:39.054Z,88019.72
2022-10-11T20:49:11.663Z,88018.91
2022-10-11T20:51:41.681Z,88023.06
2022-10-11T20:54:10.310Z,88016.63
2022-10-11T20:56:38.652Z,88020.00
2022-10-11T20:59:06.657Z,88018.88
2022-10-11T21:01:38.566Z,88019.59
2022-10-11T21:04:07.899Z,88020.34
2022-10-11T21:06:35.285Z,88018.03
2022-10-11T21:09:02.947Z,88033.19
2022-10-11T21:11:33.215Z,88024.88
2022-10-11T21:14:04.796Z,88025.66
2022-10-11T21:16:34.280Z,88027.19
2022-10-11T21:19:02.962Z,88029.44
2022-10-11T21:21:30.814Z,88030.16
2022-10-11T21:24:01.040Z,88026.03
2022-10-11T21:26:30.415Z,88026.44
2022-10-11T21:28:58.503Z,88029.06
2022-10-11T21:31:29.591Z,88026.09
2022-10-11T21:34:00.337Z,88023.47
2022-10-11T21:36:27.516Z,88026.50
2022-10-11T21:38:54.798Z,88021.63
2022-10-11T21:41:25.193Z,88025.41
2022-10-11T21:43:53.310Z,88022.00
2022-10-11T21:47:31.595Z,88018.97
2022-10-11T21:49:18.787Z,88021.19
2022-10-11T21:51:46.416Z,88025.34
2022-10-11T21:54:13.882Z,88026.88
2022-10-11T21:56:41.703Z,88017.81
2022-10-11T21:59:12.336Z,88015.91
2022-10-11T22:01:41.372Z,88022.31
2022-10-11T22:04:10.872Z,88017.41
2022-10-11T22:06:38.860Z,88020.41
2022-10-11T22:09:07.433Z,88017.00
2022-10-11T22:11:35.497Z,88019.59
2022-10-11T22:14:02.938Z,88018.88
2022-10-11T22:16:30.171Z,88017.72
2022-10-11T22:18:57.394Z,88018.88
2022-10-11T22:21:24.705Z,88016.97
2022-10-11T22:23:54.037Z,88022.97
2022-10-11T22:26:26.214Z,88017.66
2022-10-11T22:28:53.653Z,88016.88
2022-10-11T22:31:23.005Z,88011.56
2022-10-11T22:33:55.118Z,88008.16
2022-10-11T22:36:23.222Z,88003.22
2022-10-11T22:38:50.825Z,88006.59
2022-10-11T22:41:18.078Z,88009.22
2022-10-11T22:43:45.526Z,88009.22
2022-10-11T22:46:12.926Z,88018.25
2022-10-11T22:48:40.134Z,88012.22
2022-10-11T22:51:07.633Z,88018.25
2022-10-11T22:53:34.884Z,88020.13
2022-10-11T22:56:02.342Z,88017.09
2022-10-11T22:58:29.593Z,88019.00
2022-10-11T23:00:56.821Z,88017.09
2022-10-11T23:03:24.051Z,88016.69
2022-10-11T23:05:58.472Z,88013.72
2022-10-11T23:08:26.210Z,88018.56
2022-10-11T23:10:54.172Z,88013.72
2022-10-11T23:13:21.937Z,88015.22
2022-10-11T23:15:49.092Z,88013.72
2022-10-11T23:18:17.320Z,88015.22
2022-10-11T23:20:44.645Z,88014.81
2022-10-11T23:23:11.880Z,88014.44
2022-10-11T23:25:39.488Z,88010.72
2022-10-11T23:28:06.778Z,88010.34
2022-10-11T23:30:34.162Z,88013.75
2022-10-11T23:33:01.751Z,88011.47
2022-10-11T23:35:28.807Z,88013.34
2022-10-11T23:37:56.049Z,88010.34
2022-10-11T23:40:23.313Z,88012.28
2022-10-11T23:42:50.622Z,88008.53
2022-10-11T23:45:17.909Z,88006.66
2022-10-11T23:47:45.102Z,88016.50
2022-10-11T23:50:12.269Z,88014.63
2022-10-11T23:52:39.425Z,88013.84
2022-10-11T23:55:06.884Z,88020.28
2022-10-11T23:57:34.270Z,88020.59
